Monday, April 27, 2015, 6:25 AM EDT

KFDK, Frederick, Frederick Municipal Airport

Location: Frederick, MD, United States Lat: 39.417
Local Time: 6:25 AM EDT (10:25 GMT) Lon: -77.374
Time Zone: US/Eastern Elev: 301 ft

Show me the last for .
Show Decoded

2015-04-27 05:50 METAR KFDK 270950Z AUTO 15003KT 10SM OVC070 05/01 A2978 RMK AO2 =
2015-04-27 05:30 METAR KFDK 270930Z AUTO 00000KT 10SM OVC070 05/01 A2978 RMK AO2 =
2015-04-27 05:10 METAR KFDK 270910Z AUTO 00000KT 10SM OVC075 05/01 A2978 RMK AO2 =
2015-04-27 04:50 METAR KFDK 270850Z AUTO 00000KT 10SM OVC085 05/01 A2978 RMK AO2 =
2015-04-27 04:30 METAR KFDK 270830Z AUTO 00000KT 10SM OVC080 04/01 A2978 RMK AO2 =
2015-04-27 04:10 METAR KFDK 270810Z AUTO 00000KT 10SM BKN080 01/M01 A2978 RMK AO2 =
2015-04-27 03:50 METAR KFDK 270750Z AUTO 00000KT 10SM CLR 02/M01 A2978 RMK AO2 =
2015-04-27 03:30 METAR KFDK 270730Z AUTO 00000KT 10SM CLR 04/00 A2978 RMK AO2 =
2015-04-27 03:10 METAR KFDK 270710Z AUTO 00000KT 10SM CLR 05/M01 A2978 RMK AO2 =
2015-04-27 02:50 METAR KFDK 270650Z AUTO 00000KT 10SM CLR 04/M01 A2978 RMK AO2 =
2015-04-27 02:30 METAR KFDK 270630Z AUTO 03003KT 10SM CLR 05/00 A2978 RMK AO2 =
2015-04-27 02:10 METAR KFDK 270610Z AUTO 03003KT 10SM CLR 05/00 A2978 RMK AO2 =
2015-04-27 01:50 METAR KFDK 270550Z AUTO 01004KT 10SM SCT070 SCT080 07/00 A2978 RMK AO2 =
2015-04-27 01:30 METAR KFDK 270530Z AUTO 01004KT 10SM BKN070 BKN080 08/00 A2979 RMK AO2 =
2015-04-27 01:10 METAR KFDK 270510Z AUTO 02003KT 10SM OVC080 08/00 A2979 RMK AO2 =
2015-04-27 00:50 METAR KFDK 270450Z AUTO 36004KT 10SM OVC080 08/00 A2979 RMK AO2 =
2015-04-27 00:30 METAR KFDK 270430Z AUTO 02004KT 10SM OVC090 08/00 A2979 RMK AO2 =
2015-04-27 00:10 METAR KFDK 270410Z AUTO 02003KT 10SM BKN090 08/00 A2979 RMK AO2 =
2015-04-26 23:50 METAR KFDK 270350Z AUTO 03005KT 10SM BKN090 06/00 A2979 RMK AO2 =
2015-04-26 23:30 METAR KFDK 270330Z AUTO 00000KT 10SM OVC090 06/01 A2978 RMK AO2 =
2015-04-26 23:10 METAR KFDK 270310Z AUTO 00000KT 10SM BKN090 05/00 A2977 RMK AO2 =
2015-04-26 22:50 METAR KFDK 270250Z AUTO 00000KT 10SM SCT090 07/02 A2977 RMK AO2 LTG DSNT W =
2015-04-26 22:30 METAR KFDK 270230Z AUTO 00000KT 10SM SCT090 07/00 A2976 RMK AO2 =
2015-04-26 22:10 METAR KFDK 270210Z AUTO 00000KT 10SM SCT090 06/01 A2975 RMK AO2 =
2015-04-26 21:45 METAR KFDK 270145Z AUTO 00000KT 10SM SCT090 08/02 A2974 =
2015-04-26 21:25 METAR KFDK 270125Z AUTO 00000KT 10SM CLR 08/01 A2974 RMK AO2 =
2015-04-26 21:05 METAR KFDK 270105Z AUTO 00000KT 10SM CLR 07/00 A2973 RMK AO2 =
2015-04-26 20:45 METAR KFDK 270045Z AUTO 00000KT 10SM CLR 09/M01 A2973 RMK AO2 =
2015-04-26 18:50 METAR KFDK 262250Z 03006KT 10SM SKC 16/M04 A2972 =
2015-04-26 17:48 METAR KFDK 262148Z 06008KT 10SM SKC 18/M04 A2971 =
2015-04-26 16:50 METAR KFDK 262050Z 02007KT 10SM SKC 18/M05 A2971 =
2015-04-26 15:45 METAR KFDK 261945Z 00000KT 10SM SCT070 17/M07 A2972 =
2015-04-26 14:45 METAR KFDK 261845Z VRB05KT 10SM SCT065 17/M04 A2972 =
2015-04-26 13:47 METAR KFDK 261747Z 29005KT 10SM SCT065 17/M04 A2973 =
2015-04-26 12:51 METAR KFDK 261651Z 06009KT 10SM SKC 16/M03 A2974 =
2015-04-26 11:47 METAR KFDK 261547Z 05006G15KT 10SM SKC 15/M02 A2976 =
2015-04-26 10:52 METAR KFDK 261452Z 03008KT 10SM SKC 14/M01 A2976 =
2015-04-26 08:45 METAR KFDK 261245Z 02008KT 10SM SKC 10/M01 A2974 =
2015-04-26 06:45 METAR KFDK 261045Z 00000KT 10SM BKN120 06/03 A2973 =

Support USWX by starting your Amazon purchase here.